Time;durP1;ratioP1;P1;durP2;ratioP2;P2;SDS_P1;SDS_P2;PMS_P1;PMS_P2;Temp;Humidity;BMP_temperature;BMP_pressure;BME280_temperature;BME280_humidity;BME280_pressure;Samples;Min_cycle;Max_cycle;Signal;HPM_P1;HPM_P2
2023/01/23 00:02:08;;;;;;;24.23;18.15;;;3.90;99.90;;;;;;4951177;29;20207;-48
2023/01/23 00:04:34;;;;;;;24.70;18.65;;;3.90;99.90;;;;;;4951585;28;20676;-48
2023/01/23 00:07:02;;;;;;;25.42;18.15;;;3.90;99.90;;;;;;4951751;28;20292;-48
2023/01/23 00:09:28;;;;;;;24.13;17.00;;;3.90;99.90;;;;;;4950965;28;20710;-48
2023/01/23 00:11:55;;;;;;;22.95;18.05;;;3.90;99.90;;;;;;5017446;28;20214;-48
2023/01/23 00:14:22;;;;;;;26.48;16.85;;;3.80;99.90;;;;;;4951110;29;20273;-48
2023/01/23 00:16:48;;;;;;;27.73;19.17;;;3.60;99.90;;;;;;4951057;28;20622;-48
2023/01/23 00:19:16;;;;;;;28.35;18.75;;;3.40;99.90;;;;;;4950511;29;20620;-48
2023/01/23 00:21:43;;;;;;;25.33;17.05;;;3.70;99.90;;;;;;4951424;29;20203;-48
2023/01/23 00:24:11;;;;;;;24.70;18.13;;;3.70;99.90;;;;;;4953679;28;20665;-47
2023/01/23 00:26:38;;;;;;;21.70;15.95;;;3.70;99.90;;;;;;4954815;28;20230;-47
2023/01/23 00:29:05;;;;;;;25.50;17.40;;;3.30;99.90;;;;;;4954155;29;20230;-49
2023/01/23 00:31:34;;;;;;;25.40;17.25;;;3.80;99.90;;;;;;4954340;28;20199;-48
2023/01/23 00:34:03;;;;;;;27.73;18.58;;;3.80;99.90;;;;;;4954280;29;20200;-48
2023/01/23 00:36:33;;;;;;;24.13;17.23;;;3.60;99.90;;;;;;4954239;28;20223;-56
2023/01/23 00:39:00;;;;;;;24.27;18.15;;;3.90;99.90;;;;;;4954273;29;20205;-49
2023/01/23 00:41:27;;;;;;;25.77;17.98;;;4.20;99.90;;;;;;4954171;29;20269;-48
2023/01/23 00:43:53;;;;;;;25.52;17.50;;;3.80;99.90;;;;;;4954145;29;20203;-48
2023/01/23 00:46:21;;;;;;;24.13;17.73;;;3.30;99.90;;;;;;4954489;28;20223;-49
2023/01/23 00:48:47;;;;;;;23.17;17.08;;;3.80;99.90;;;;;;4953950;28;20672;-49
2023/01/23 00:51:15;;;;;;;25.08;16.58;;;3.70;99.90;;;;;;5020137;28;20627;-48
2023/01/23 00:53:43;;;;;;;25.95;17.67;;;3.90;99.90;;;;;;4953610;29;20219;-49
2023/01/23 00:56:10;;;;;;;23.83;17.73;;;3.70;99.90;;;;;;5019643;28;20262;-49
2023/01/23 00:58:36;;;;;;;24.13;16.27;;;3.70;99.90;;;;;;4951666;29;20253;-48
2023/01/23 01:01:03;;;;;;;28.33;18.92;;;3.30;99.90;;;;;;4953425;29;20195;-48
2023/01/23 01:03:30;;;;;;;25.30;17.27;;;3.80;99.90;;;;;;5020002;28;20712;-49
2023/01/23 01:05:57;;;;;;;27.27;17.80;;;3.00;99.90;;;;;;4953178;28;20592;-49
2023/01/23 01:08:24;;;;;;;24.35;17.55;;;3.60;99.90;;;;;;4953043;28;20218;-49
2023/01/23 01:10:51;;;;;;;27.25;18.83;;;3.10;99.90;;;;;;5019856;28;20210;-49
2023/01/23 01:13:20;;;;;;;29.10;19.17;;;3.60;99.90;;;;;;4953304;29;20199;-49
2023/01/23 01:15:47;;;;;;;27.27;19.13;;;3.80;99.90;;;;;;4952974;28;20245;-49
2023/01/23 01:18:14;;;;;;;27.13;17.73;;;3.80;99.90;;;;;;4952843;28;20206;-49
2023/01/23 01:20:42;;;;;;;27.50;18.98;;;3.90;99.90;;;;;;5019311;28;20218;-49
2023/01/23 01:23:08;;;;;;;29.10;19.52;;;4.00;99.90;;;;;;5019217;28;20604;-49
2023/01/23 01:25:35;;;;;;;26.90;18.55;;;3.60;99.90;;;;;;4952713;28;20215;-48
2023/01/23 01:28:03;;;;;;;24.45;17.02;;;3.90;99.90;;;;;;5019302;28;20207;-49
2023/01/23 01:30:30;;;;;;;27.83;18.75;;;3.60;99.90;;;;;;4953043;28;20201;-49
2023/01/23 01:32:57;;;;;;;26.92;18.70;;;4.00;99.90;;;;;;5019518;28;20560;-48
2023/01/23 01:35:24;;;;;;;26.75;18.35;;;4.30;99.90;;;;;;4952226;28;20590;-49
2023/01/23 01:37:51;;;;;;;25.20;17.77;;;3.80;99.90;;;;;;5019260;28;20204;-49
2023/01/23 01:40:20;;;;;;;27.17;19.30;;;3.80;99.90;;;;;;5018568;28;20213;-49
2023/01/23 01:42:49;;;;;;;26.17;18.08;;;3.90;99.90;;;;;;4952910;28;20210;-49
2023/01/23 01:45:53;;;;;;;27.05;19.20;;;4.10;99.90;;;;;;5018961;28;20302;-49
2023/01/23 01:48:24;;;;;;;29.38;18.00;;;3.80;99.90;;;;;;5018730;28;20711;-49
2023/01/23 01:50:52;;;;;;;26.05;17.75;;;3.10;99.90;;;;;;4952680;28;20203;-48
2023/01/23 01:53:20;;;;;;;28.98;19.30;;;3.70;99.90;;;;;;5019016;28;20214;-49
2023/01/23 01:55:47;;;;;;;30.83;18.98;;;4.00;99.90;;;;;;4952503;28;20242;-49
2023/01/23 01:58:14;;;;;;;28.52;18.00;;;3.90;99.90;;;;;;5018419;28;20218;-48
2023/01/23 02:00:41;;;;;;;26.60;18.40;;;4.10;99.90;;;;;;5019080;28;20314;-48
2023/01/23 02:03:08;;;;;;;28.13;19.00;;;3.90;99.90;;;;;;4952509;28;20207;-48
2023/01/23 02:05:38;;;;;;;25.90;19.17;;;3.90;99.90;;;;;;4952134;28;20708;-48
2023/01/23 02:08:09;;;;;;;30.45;18.40;;;3.80;99.90;;;;;;5018339;28;20211;-49
2023/01/23 02:10:39;;;;;;;28.88;20.92;;;3.70;99.90;;;;;;5018509;28;20291;-48
2023/01/23 02:13:20;;;;;;;29.52;20.10;;;3.80;99.90;;;;;;4952315;28;20206;-48
2023/01/23 02:15:47;;;;;;;30.67;17.77;;;3.80;99.90;;;;;;4951925;28;20227;-48
2023/01/23 02:18:14;;;;;;;27.73;18.50;;;4.10;99.90;;;;;;4952156;28;20210;-48
2023/01/23 02:20:42;;;;;;;25.65;18.55;;;3.80;99.90;;;;;;4952210;29;20195;-47
2023/01/23 02:23:16;;;;;;;28.35;20.02;;;3.70;99.90;;;;;;5018390;28;20208;-48
2023/01/23 02:25:52;;;;;;;28.02;18.52;;;3.70;99.90;;;;;;5018384;28;20223;-48
2023/01/23 02:28:19;;;;;;;27.27;18.55;;;3.60;99.90;;;;;;5018009;28;20660;-49
2023/01/23 02:30:46;;;;;;;27.00;18.02;;;4.00;99.90;;;;;;5018145;28;20297;-49
2023/01/23 02:33:55;;;;;;;29.10;19.70;;;3.90;99.90;;;;;;5018222;28;20211;-48
2023/01/23 02:36:24;;;;;;;27.60;18.65;;;3.80;99.90;;;;;;4906024;29;20239;-48
2023/01/23 02:38:58;;;;;;;32.72;18.35;;;4.10;99.90;;;;;;5017693;28;20711;-49
2023/01/23 02:41:29;;;;;;;25.10;18.30;;;3.90;99.90;;;;;;5018197;28;20622;-49
2023/01/23 02:43:59;;;;;;;22.77;16.92;;;3.70;99.90;;;;;;5018171;28;20227;-49
2023/01/23 02:46:26;;;;;;;28.90;19.90;;;3.70;99.90;;;;;;5017317;28;20223;-49
2023/01/23 02:48:53;;;;;;;27.30;17.95;;;4.00;99.90;;;;;;4951426;28;20199;-48
2023/01/23 02:51:21;;;;;;;24.38;18.33;;;3.80;99.90;;;;;;5017752;28;20688;-49
2023/01/23 02:53:48;;;;;;;26.15;18.40;;;4.00;99.90;;;;;;5018266;28;20272;-47
2023/01/23 02:56:15;;;;;;;28.30;18.75;;;3.70;99.90;;;;;;5018531;28;20236;-48
2023/01/23 03:01:30;;;;;;;27.75;17.98;;;3.80;99.90;;;;;;4951957;29;20286;-47
2023/01/23 03:04:02;;;;;;;26.00;18.38;;;4.00;99.90;;;;;;4951837;28;20286;-48
2023/01/23 03:06:34;;;;;;;26.35;18.92;;;3.80;99.90;;;;;;5017699;28;20230;-48
2023/01/23 03:09:04;;;;;;;27.30;19.38;;;4.00;99.90;;;;;;5017421;28;20203;-48
2023/01/23 03:11:32;;;;;;;25.35;17.42;;;3.90;99.90;;;;;;4951769;28;20202;-49
2023/01/23 03:14:02;;;;;;;26.33;18.17;;;4.10;99.90;;;;;;5017555;28;20233;-48
2023/01/23 03:16:28;;;;;;;27.80;19.92;;;4.10;99.90;;;;;;5017625;28;20243;-49
2023/01/23 03:18:58;;;;;;;24.23;17.55;;;3.90;99.90;;;;;;5016987;28;20580;-48
2023/01/23 03:21:24;;;;;;;26.20;17.90;;;3.90;99.90;;;;;;5017417;28;20203;-48
2023/01/23 03:23:51;;;;;;;25.50;16.60;;;3.90;99.90;;;;;;5017356;28;20298;-48
2023/01/23 03:26:18;;;;;;;28.50;18.13;;;3.90;99.90;;;;;;5017314;28;20231;-48
2023/01/23 03:32:36;;;;;;;28.42;19.67;;;3.90;99.90;;;;;;4951548;29;20189;-49
2023/01/23 03:35:03;;;;;;;25.90;17.80;;;4.00;99.90;;;;;;4951103;28;20663;-49
2023/01/23 03:37:30;;;;;;;26.15;18.67;;;3.90;99.90;;;;;;4951208;29;20204;-49
2023/01/23 03:42:42;;;;;;;27.85;19.38;;;3.90;99.90;;;;;;5017425;28;20203;-49
2023/01/23 03:45:11;;;;;;;27.33;18.98;;;3.90;99.90;;;;;;5017287;28;20218;-49
2023/01/23 03:47:39;;;;;;;26.85;18.88;;;3.90;99.90;;;;;;4951169;29;20199;-48
2023/01/23 03:50:08;;;;;;;25.50;17.13;;;3.90;99.90;;;;;;5016732;28;20573;-48
2023/01/23 03:52:37;;;;;;;26.17;18.20;;;3.90;99.90;;;;;;5017020;28;20215;-48
2023/01/23 03:55:05;;;;;;;28.15;20.15;;;3.80;99.90;;;;;;5016667;28;20199;-48
2023/01/23 03:57:31;;;;;;;24.05;19.13;;;4.00;99.90;;;;;;5018417;28;20203;-48
2023/01/23 04:00:06;;;;;;;27.15;18.65;;;3.90;99.90;;;;;;5020600;28;20203;-48
2023/01/23 04:02:49;;;;;;;26.98;19.10;;;3.90;99.90;;;;;;5020797;28;20743;-48
2023/01/23 04:05:17;;;;;;;27.10;19.10;;;4.00;99.90;;;;;;5020913;28;20588;-47
2023/01/23 04:07:44;;;;;;;27.20;19.75;;;3.70;99.90;;;;;;5020890;28;20575;-49
2023/01/23 04:10:11;;;;;;;25.50;18.80;;;4.10;99.90;;;;;;4953873;28;20282;-49
2023/01/23 04:12:37;;;;;;;26.83;19.60;;;3.60;99.90;;;;;;4954263;29;20704;-49
2023/01/23 04:15:06;;;;;;;30.10;19.90;;;4.00;99.90;;;;;;5020499;28;20261;-49
2023/01/23 04:17:33;;;;;;;25.42;17.85;;;4.10;99.90;;;;;;5020345;28;20242;-49
2023/01/23 04:20:01;;;;;;;27.67;18.15;;;3.80;99.90;;;;;;5020201;28;20210;-48
2023/01/23 04:22:27;;;;;;;30.20;20.05;;;4.40;99.90;;;;;;5020353;28;20212;-48
2023/01/23 04:24:54;;;;;;;27.90;19.70;;;4.20;99.90;;;;;;5020451;28;20203;-48
2023/01/23 04:27:21;;;;;;;29.63;19.92;;;3.90;99.90;;;;;;4953856;28;20215;-48
2023/01/23 04:29:50;;;;;;;29.27;20.40;;;3.40;99.90;;;;;;5019947;28;20589;-48
2023/01/23 04:32:18;;;;;;;25.77;20.08;;;4.10;99.90;;;;;;5020306;28;20211;-48
2023/01/23 04:34:46;;;;;;;27.67;19.30;;;3.50;99.90;;;;;;5020259;28;20239;-48
2023/01/23 04:37:16;;;;;;;29.08;19.60;;;4.50;99.90;;;;;;5020078;28;20318;-47
2023/01/23 04:39:43;;;;;;;26.10;19.60;;;4.40;99.90;;;;;;4953341;28;20295;-48
2023/01/23 04:42:09;;;;;;;27.73;18.85;;;4.00;99.90;;;;;;4953749;28;20591;-48
2023/01/23 04:44:47;;;;;;;28.55;19.55;;;3.90;99.90;;;;;;5020354;28;20203;-48
2023/01/23 04:47:37;;;;;;;28.83;20.15;;;4.10;99.90;;;;;;4981002;28;20220;-48
2023/01/23 04:50:09;;;;;;;33.75;21.27;;;3.50;99.90;;;;;;5019498;28;20204;-47
2023/01/23 04:52:37;;;;;;;27.80;19.42;;;4.10;99.90;;;;;;4953531;29;20559;-49
2023/01/23 04:55:04;;;;;;;32.45;20.05;;;3.90;99.90;;;;;;5019802;28;20559;-48
2023/01/23 04:57:31;;;;;;;29.02;21.73;;;4.10;99.90;;;;;;5019669;28;20223;-48
2023/01/23 05:00:10;;;;;;;29.88;22.15;;;4.20;99.90;;;;;;5019382;28;20203;-49
2023/01/23 05:02:37;;;;;;;29.58;20.80;;;3.90;99.90;;;;;;5019715;28;20561;-49
2023/01/23 05:05:05;;;;;;;29.38;21.27;;;4.10;99.90;;;;;;5019564;28;20299;-49
2023/01/23 05:07:32;;;;;;;31.20;20.63;;;3.90;99.90;;;;;;5019647;28;20206;-49
2023/01/23 05:10:10;;;;;;;30.13;21.13;;;3.70;99.90;;;;;;5018414;28;20667;-49
2023/01/23 05:12:37;;;;;;;30.50;20.52;;;4.00;99.90;;;;;;5019594;28;20257;-48
2023/01/23 05:15:06;;;;;;;29.05;20.10;;;3.30;99.90;;;;;;5019295;28;20215;-49
2023/01/23 05:17:36;;;;;;;32.05;21.80;;;4.10;99.90;;;;;;5019670;28;20223;-49
2023/01/23 05:20:04;;;;;;;26.08;19.92;;;4.00;99.90;;;;;;5019061;28;20204;-49
2023/01/23 05:22:31;;;;;;;26.15;19.33;;;3.90;99.90;;;;;;5019710;28;20210;-49
2023/01/23 05:24:58;;;;;;;28.38;20.20;;;4.50;99.90;;;;;;5019539;28;20261;-49
2023/01/23 05:27:28;;;;;;;34.15;20.38;;;4.00;99.90;;;;;;5019612;28;20290;-48
2023/01/23 05:29:55;;;;;;;30.63;20.75;;;3.80;99.90;;;;;;5019124;28;20212;-49
2023/01/23 05:32:25;;;;;;;28.67;19.35;;;4.50;99.90;;;;;;5019352;28;20199;-49
2023/01/23 05:35:16;;;;;;;31.35;21.30;;;3.80;99.90;;;;;;5019506;28;20293;-48
2023/01/23 05:37:43;;;;;;;32.38;20.92;;;3.20;99.90;;;;;;5019606;28;20544;-46
2023/01/23 05:40:12;;;;;;;28.58;20.73;;;3.40;99.90;;;;;;5019671;28;20294;-47
2023/01/23 05:43:06;;;;;;;29.00;19.90;;;4.10;99.90;;;;;;4953370;28;20208;-48
2023/01/23 05:45:53;;;;;;;29.52;22.02;;;3.80;99.90;;;;;;4953210;28;20227;-49
2023/01/23 05:48:40;;;;;;;35.75;20.45;;;4.10;99.90;;;;;;4952887;28;20211;-49
2023/01/23 05:51:09;;;;;;;31.15;20.13;;;3.80;99.90;;;;;;5018767;28;20680;-49
2023/01/23 05:53:36;;;;;;;29.70;19.67;;;4.00;99.90;;;;;;5018879;28;20208;-48
2023/01/23 05:56:06;;;;;;;29.25;20.55;;;3.80;99.90;;;;;;5018647;28;20235;-48
2023/01/23 05:58:38;;;;;;;31.55;20.88;;;3.90;99.90;;;;;;5018413;28;20212;-47
2023/01/23 06:01:27;;;;;;;29.02;19.73;;;3.50;99.90;;;;;;5018622;28;20691;-48
2023/01/23 06:04:16;;;;;;;31.95;20.20;;;4.30;99.90;;;;;;4952699;28;20622;-49
2023/01/23 06:06:53;;;;;;;29.83;19.00;;;3.80;99.90;;;;;;5018753;28;20231;-48
2023/01/23 06:09:20;;;;;;;27.15;19.83;;;3.90;99.90;;;;;;5018735;28;20306;-49
2023/01/23 06:11:47;;;;;;;27.65;19.90;;;3.90;99.90;;;;;;5018556;28;20333;-49
2023/01/23 06:14:16;;;;;;;27.83;19.90;;;3.70;99.90;;;;;;5018066;28;20211;-47
2023/01/23 06:16:42;;;;;;;29.20;20.13;;;3.70;99.90;;;;;;5018314;28;20223;-49
2023/01/23 06:19:09;;;;;;;31.27;21.17;;;3.90;99.90;;;;;;5017681;28;20208;-49
2023/01/23 06:21:36;;;;;;;27.58;19.17;;;3.70;99.90;;;;;;5016910;28;20231;-48
2023/01/23 06:24:03;;;;;;;32.33;21.73;;;3.80;99.90;;;;;;5018143;28;20203;-49
2023/01/23 06:26:30;;;;;;;27.70;19.55;;;3.60;99.90;;;;;;5018042;28;20219;-49
2023/01/23 06:28:57;;;;;;;24.88;19.00;;;3.60;99.90;;;;;;5017466;28;20744;-49
2023/01/23 06:31:25;;;;;;;30.10;19.60;;;3.80;99.90;;;;;;5017980;28;20238;-48
2023/01/23 06:33:56;;;;;;;28.65;20.02;;;3.90;99.90;;;;;;5017541;28;20203;-50
2023/01/23 06:36:28;;;;;;;29.52;21.35;;;3.90;99.90;;;;;;4949883;28;20586;-49
2023/01/23 06:38:55;;;;;;;27.98;19.63;;;4.00;99.90;;;;;;5017259;28;20210;-49
2023/01/23 06:41:27;;;;;;;28.70;20.65;;;3.30;99.90;;;;;;5017551;28;20203;-49
2023/01/23 06:43:55;;;;;;;29.63;20.52;;;3.80;99.90;;;;;;5016933;28;20260;-48
2023/01/23 06:46:25;;;;;;;29.25;20.20;;;3.80;99.90;;;;;;5017113;28;20307;-48
2023/01/23 06:48:53;;;;;;;27.52;19.55;;;3.90;99.90;;;;;;5017028;28;20724;-50
2023/01/23 06:51:20;;;;;;;29.73;21.23;;;4.00;99.90;;;;;;4950408;29;20585;-50
2023/01/23 06:53:48;;;;;;;27.70;19.60;;;3.80;99.90;;;;;;5016845;28;20266;-49
2023/01/23 06:56:15;;;;;;;28.77;20.30;;;3.90;99.90;;;;;;5016744;28;20318;-50
2023/01/23 06:58:45;;;;;;;28.83;21.45;;;3.60;99.90;;;;;;5016718;28;20212;-49
2023/01/23 07:01:20;;;;;;;27.63;19.70;;;4.00;99.90;;;;;;5017382;28;20302;-48
2023/01/23 07:04:07;;;;;;;32.17;20.90;;;3.80;99.90;;;;;;4951703;29;20711;-47
2023/01/23 07:06:34;;;;;;;33.38;22.73;;;3.70;99.90;;;;;;5017262;28;20277;-48
2023/01/23 07:09:01;;;;;;;32.00;21.25;;;3.60;99.90;;;;;;5016605;28;20203;-48
2023/01/23 07:11:28;;;;;;;30.60;21.90;;;3.60;99.90;;;;;;4950894;29;20199;-47
2023/01/23 07:13:56;;;;;;;32.10;21.73;;;3.70;99.90;;;;;;4951091;29;20196;-48
2023/01/23 07:16:25;;;;;;;31.10;22.20;;;3.90;99.90;;;;;;5017194;28;20223;-49
2023/01/23 07:18:52;;;;;;;29.00;20.92;;;3.90;99.90;;;;;;5016872;28;20578;-49
2023/01/23 07:21:21;;;;;;;30.50;20.77;;;3.90;99.90;;;;;;5017110;28;20302;-48
2023/01/23 07:23:47;;;;;;;30.90;19.92;;;3.80;99.90;;;;;;4951073;29;20203;-49
2023/01/23 07:26:14;;;;;;;29.65;21.15;;;3.60;99.90;;;;;;4951122;28;20219;-49
2023/01/23 07:28:40;;;;;;;27.92;20.77;;;4.00;99.90;;;;;;4950616;28;20238;-49
2023/01/23 07:31:07;;;;;;;31.88;21.23;;;4.00;99.90;;;;;;4950841;28;20199;-48
2023/01/23 07:33:34;;;;;;;34.00;22.13;;;3.70;99.90;;;;;;4949632;28;20222;-48
2023/01/23 07:36:00;;;;;;;34.67;22.02;;;3.80;99.90;;;;;;4950601;28;20358;-49
2023/01/23 07:38:29;;;;;;;27.35;20.92;;;3.60;99.90;;;;;;4950473;28;20312;-48
2023/01/23 07:40:58;;;;;;;30.77;22.77;;;3.30;99.90;;;;;;4951071;28;20619;-47
2023/01/23 07:43:25;;;;;;;30.40;22.40;;;4.20;99.90;;;;;;4950928;28;20196;-49
2023/01/23 07:45:52;;;;;;;35.65;23.00;;;3.70;99.90;;;;;;5016709;28;20230;-49
2023/01/23 07:48:19;;;;;;;31.27;19.98;;;3.60;99.90;;;;;;4950988;29;20683;-48
2023/01/23 07:50:45;;;;;;;33.15;22.10;;;3.70;99.90;;;;;;5017456;28;20207;-48
2023/01/23 07:53:12;;;;;;;32.85;21.70;;;4.00;99.90;;;;;;5016939;28;20203;-48
2023/01/23 07:55:40;;;;;;;29.85;22.83;;;3.80;99.90;;;;;;4951310;28;20223;-48
2023/01/23 07:58:07;;;;;;;31.85;23.10;;;3.10;99.90;;;;;;5016656;28;20234;-48
2023/01/23 08:00:33;;;;;;;33.40;22.75;;;3.30;99.90;;;;;;4950540;28;20653;-49
2023/01/23 08:03:00;;;;;;;30.08;22.08;;;4.00;99.90;;;;;;4950778;29;20202;-49
2023/01/23 08:05:26;;;;;;;33.10;21.35;;;3.30;99.90;;;;;;4950504;28;20231;-49
2023/01/23 08:07:53;;;;;;;28.65;19.90;;;4.00;99.90;;;;;;4950565;28;20592;-49
2023/01/23 08:10:20;;;;;;;33.00;23.10;;;4.00;99.90;;;;;;4950690;28;20196;-49
2023/01/23 08:12:48;;;;;;;28.67;21.52;;;4.00;99.90;;;;;;4950394;28;20210;-48
2023/01/23 08:15:14;;;;;;;33.30;21.88;;;3.90;99.90;;;;;;4950178;28;20645;-48
2023/01/23 08:17:41;;;;;;;33.25;22.73;;;3.90;99.90;;;;;;4950081;29;20621;-47
2023/01/23 08:20:09;;;;;;;26.83;19.48;;;4.00;99.90;;;;;;4950001;28;20206;-49
2023/01/23 08:22:39;;;;;;;30.13;21.65;;;4.10;99.90;;;;;;4950447;29;20234;-48
2023/01/23 08:25:07;;;;;;;31.55;21.48;;;4.10;99.90;;;;;;4950413;28;20577;-47
2023/01/23 08:27:34;;;;;;;26.98;19.83;;;4.10;99.90;;;;;;4950124;29;20192;-48
2023/01/23 08:30:02;;;;;;;28.63;21.08;;;3.90;99.90;;;;;;4949804;29;20683;-50
2023/01/23 08:32:28;;;;;;;27.67;20.60;;;3.90;99.90;;;;;;4949599;29;20204;-48
2023/01/23 08:34:55;;;;;;;32.08;20.85;;;4.00;99.90;;;;;;4949887;28;20683;-48
2023/01/23 08:37:21;;;;;;;30.90;20.63;;;3.20;99.90;;;;;;4949989;28;20235;-49
2023/01/23 08:39:48;;;;;;;29.85;20.75;;;3.70;99.90;;;;;;4949612;29;20222;-48
2023/01/23 08:42:15;;;;;;;28.40;20.52;;;3.90;99.90;;;;;;4949600;29;20237;-49
2023/01/23 08:44:41;;;;;;;26.38;20.98;;;4.00;99.90;;;;;;4951278;28;20204;-48
2023/01/23 08:47:09;;;;;;;35.60;22.73;;;3.90;99.90;;;;;;4953235;28;20230;-48
2023/01/23 08:49:36;;;;;;;29.73;21.45;;;4.00;99.90;;;;;;4952806;29;20203;-48
2023/01/23 08:52:05;;;;;;;31.67;22.00;;;3.80;99.90;;;;;;4953341;28;20199;-49
2023/01/23 08:54:31;;;;;;;28.95;22.05;;;3.80;99.90;;;;;;4953483;29;20210;-48
2023/01/23 08:56:58;;;;;;;27.05;19.10;;;3.90;99.90;;;;;;4953674;28;20227;-48
2023/01/23 08:59:25;;;;;;;31.05;24.67;;;4.10;99.90;;;;;;4952746;28;20501;-49
2023/01/23 09:01:52;;;;;;;38.85;23.60;;;4.10;99.90;;;;;;4953119;29;20294;-48
2023/01/23 09:04:19;;;;;;;31.70;24.92;;;4.20;99.90;;;;;;4952750;28;20463;-48
2023/01/23 09:06:46;;;;;;;29.40;23.23;;;4.30;99.90;;;;;;4953229;28;20238;-48
2023/01/23 09:09:13;;;;;;;26.38;21.05;;;4.20;99.90;;;;;;4952529;29;20207;-48
2023/01/23 09:11:39;;;;;;;37.67;23.20;;;4.50;99.90;;;;;;4952949;28;20203;-48
2023/01/23 09:14:06;;;;;;;31.80;23.20;;;4.30;99.90;;;;;;4952924;29;20199;-47
2023/01/23 09:16:33;;;;;;;31.30;21.10;;;4.70;99.90;;;;;;4952661;28;20687;-51
2023/01/23 09:18:59;;;;;;;28.13;19.85;;;4.20;99.90;;;;;;4952382;28;20325;-50
2023/01/23 09:21:27;;;;;;;30.80;21.55;;;4.10;99.90;;;;;;4952618;28;20202;-47
2023/01/23 09:23:54;;;;;;;30.20;24.55;;;4.20;99.90;;;;;;4951822;28;20462;-47
2023/01/23 09:26:20;;;;;;;29.38;21.83;;;4.60;99.90;;;;;;4952999;28;20227;-48
2023/01/23 09:28:47;;;;;;;30.40;22.08;;;4.10;99.90;;;;;;4952248;29;20200;-48
2023/01/23 09:31:14;;;;;;;37.40;23.30;;;4.20;99.90;;;;;;4952455;28;20442;-50
2023/01/23 09:33:41;;;;;;;27.98;21.55;;;4.40;99.90;;;;;;4952657;29;20203;-49
2023/01/23 09:36:09;;;;;;;31.88;26.00;;;4.60;99.90;;;;;;4951236;28;20508;-50
2023/01/23 09:38:37;;;;;;;32.63;26.33;;;4.90;99.90;;;;;;4951064;28;20497;-50
2023/01/23 09:41:11;;;;;;;28.52;25.17;;;4.90;99.90;;;;;;4951180;28;20778;-49
2023/01/23 09:43:45;;;;;;;30.42;23.02;;;5.00;99.90;;;;;;4952690;29;20187;-47
2023/01/23 09:46:20;;;;;;;30.50;23.27;;;4.70;99.90;;;;;;4952748;28;20227;-49
2023/01/23 09:48:48;;;;;;;25.95;20.98;;;4.90;99.90;;;;;;4951917;29;20203;-50
2023/01/23 09:51:23;;;;;;;28.67;22.13;;;4.80;99.90;;;;;;4952298;28;20503;-49
2023/01/23 09:53:54;;;;;;;26.15;19.67;;;4.70;99.90;;;;;;4952263;28;20235;-48
2023/01/23 09:56:30;;;;;;;30.15;21.88;;;4.50;99.90;;;;;;4952081;28;20219;-47
2023/01/23 09:59:02;;;;;;;27.95;21.88;;;4.70;99.90;;;;;;4951881;29;20573;-49
2023/01/23 10:01:30;;;;;;;28.65;23.73;;;4.50;99.90;;;;;;4951156;28;20447;-48
2023/01/23 10:03:59;;;;;;;28.30;21.52;;;4.70;99.90;;;;;;5018533;28;20219;-47
2023/01/23 10:06:28;;;;;;;31.00;27.00;;;4.40;99.90;;;;;;4951087;28;20464;-50
2023/01/23 10:09:20;;;;;;;32.10;26.10;;;4.90;99.90;;;;;;4951276;28;20436;-48
2023/01/23 10:11:57;;;;;;;30.42;25.60;;;5.30;99.90;;;;;;4951012;28;20431;-48
2023/01/23 10:14:44;;;;;;;28.85;21.70;;;5.30;99.90;;;;;;4952220;28;20249;-49
2023/01/23 10:17:18;;;;;;;31.58;24.77;;;4.80;99.90;;;;;;4951126;28;20778;-48
2023/01/23 10:20:00;;;;;;;30.23;25.63;;;4.80;99.90;;;;;;4950982;29;20432;-49
2023/01/23 10:22:34;;;;;;;29.90;23.42;;;4.60;99.90;;;;;;4951987;29;20210;-48
2023/01/23 10:25:11;;;;;;;33.67;23.90;;;5.00;99.90;;;;;;4952757;28;20206;-48
2023/01/23 10:27:42;;;;;;;33.33;21.27;;;4.60;99.90;;;;;;5018151;28;20215;-49
2023/01/23 10:30:20;;;;;;;26.77;20.50;;;5.30;99.90;;;;;;4951352;28;20612;-49
2023/01/23 10:32:50;;;;;;;27.65;20.88;;;4.50;99.90;;;;;;4951696;29;20206;-48
2023/01/23 10:35:22;;;;;;;28.95;22.45;;;4.50;99.90;;;;;;4951569;28;20207;-48
2023/01/23 10:37:54;;;;;;;30.60;21.13;;;4.50;99.90;;;;;;4951723;28;20220;-50
2023/01/23 10:43:12;;;;;;;33.17;23.50;;;4.60;99.90;;;;;;4954187;28;20222;-49
2023/01/23 10:45:39;;;;;;;27.95;21.08;;;4.00;99.90;;;;;;4951768;28;20215;-47
2023/01/23 10:48:27;;;;;;;28.30;21.73;;;4.60;99.90;;;;;;4951242;28;20210;-49
2023/01/23 10:50:54;;;;;;;25.90;21.45;;;4.40;99.90;;;;;;4951609;28;20560;-48
2023/01/23 10:53:21;;;;;;;31.02;24.75;;;4.00;99.90;;;;;;4950605;28;20439;-48
2023/01/23 10:55:51;;;;;;;29.73;22.17;;;4.50;99.90;;;;;;4951489;28;20238;-49
2023/01/23 10:58:29;;;;;;;29.25;22.67;;;4.90;99.90;;;;;;4951161;28;20543;-49
2023/01/23 11:00:55;;;;;;;27.17;20.65;;;4.60;99.90;;;;;;4951403;29;20259;-49
2023/01/23 11:03:29;;;;;;;25.15;20.92;;;4.90;99.90;;;;;;5017390;28;20210;-49
2023/01/23 11:05:57;;;;;;;27.48;21.75;;;4.90;99.90;;;;;;5017295;28;20235;-49
2023/01/23 11:08:26;;;;;;;28.25;20.83;;;4.60;99.90;;;;;;4949890;29;20195;-49
2023/01/23 11:11:15;;;;;;;28.80;20.92;;;4.70;99.90;;;;;;4951100;28;20436;-48
2023/01/23 11:13:44;;;;;;;29.42;24.10;;;4.70;99.90;;;;;;4950213;29;20435;-49
2023/01/23 11:16:14;;;;;;;31.40;24.88;;;5.10;99.90;;;;;;4950388;28;20428;-48
2023/01/23 11:18:43;;;;;;;30.48;22.77;;;5.20;99.90;;;;;;4951193;28;20566;-49
2023/01/23 11:21:20;;;;;;;26.65;21.20;;;4.80;99.90;;;;;;4951059;28;20257;-48
2023/01/23 11:23:47;;;;;;;29.75;21.40;;;4.90;99.90;;;;;;4950982;28;20281;-49
2023/01/23 11:26:32;;;;;;;24.35;19.58;;;5.00;99.90;;;;;;4950818;28;20597;-48
2023/01/23 11:29:00;;;;;;;32.28;19.80;;;5.00;99.90;;;;;;4950722;28;20699;-49
2023/01/23 11:31:30;;;;;;;25.15;20.48;;;4.60;99.90;;;;;;4951013;28;20283;-48
2023/01/23 11:34:02;;;;;;;25.80;20.30;;;4.60;99.90;;;;;;4950973;29;20223;-49
2023/01/23 11:36:40;;;;;;;27.02;20.35;;;4.60;99.90;;;;;;4951284;28;20219;-48
2023/01/23 11:39:16;;;;;;;29.83;23.88;;;4.60;99.90;;;;;;4949440;29;20447;-48
2023/01/23 11:41:44;;;;;;;31.45;21.73;;;4.90;99.90;;;;;;4950685;29;20203;-47
2023/01/23 11:44:17;;;;;;;27.30;21.95;;;5.00;99.90;;;;;;4950978;29;20210;-47
2023/01/23 11:47:01;;;;;;;27.90;20.48;;;4.70;99.90;;;;;;4950677;28;20219;-50
2023/01/23 11:49:45;;;;;;;26.85;21.13;;;4.90;99.90;;;;;;4949760;29;20432;-50
2023/01/23 11:52:26;;;;;;;25.27;20.25;;;4.90;99.90;;;;;;4950074;29;20207;-49
2023/01/23 11:55:13;;;;;;;27.30;20.90;;;4.70;99.90;;;;;;4950064;29;20268;-50
2023/01/23 11:57:55;;;;;;;22.20;18.60;;;4.60;99.90;;;;;;4950191;28;20204;-49
2023/01/23 12:00:33;;;;;;;25.30;19.77;;;5.00;99.90;;;;;;4950320;28;20213;-49
2023/01/23 12:03:26;;;;;;;29.25;19.85;;;4.60;99.90;;;;;;5016178;28;20211;-50
2023/01/23 12:06:12;;;;;;;28.48;21.52;;;4.60;99.90;;;;;;4950817;28;20255;-46
2023/01/23 12:08:45;;;;;;;23.25;18.40;;;4.60;99.90;;;;;;4949620;29;20546;-48
2023/01/23 12:11:15;;;;;;;22.67;17.10;;;4.70;99.90;;;;;;4950157;28;20210;-47
2023/01/23 12:13:59;;;;;;;30.88;19.55;;;4.50;99.90;;;;;;4950747;28;20571;-47
2023/01/23 12:16:39;;;;;;;23.38;17.98;;;4.20;99.90;;;;;;4950046;28;20219;-48
2023/01/23 12:19:16;;;;;;;23.05;19.30;;;5.10;99.90;;;;;;4950865;28;20826;-50
2023/01/23 12:21:50;;;;;;;22.40;18.02;;;5.00;99.90;;;;;;4952989;29;20212;-49
2023/01/23 12:24:27;;;;;;;23.05;17.95;;;5.00;99.90;;;;;;4952895;28;20207;-50
2023/01/23 12:27:00;;;;;;;22.13;17.58;;;5.00;99.90;;;;;;4952957;28;20411;-49
2023/01/23 12:30:00;;;;;;;20.77;15.75;;;5.10;99.90;;;;;;4952535;29;20307;-47
2023/01/23 12:32:43;;;;;;;23.30;19.55;;;4.30;99.90;;;;;;4985309;28;20534;-48
2023/01/23 12:35:34;;;;;;;24.38;17.48;;;5.30;99.90;;;;;;5006039;28;20207;-48
2023/01/23 12:38:13;;;;;;;25.02;15.88;;;5.10;99.90;;;;;;4953827;28;20233;-48
2023/01/23 12:40:44;;;;;;;22.23;15.80;;;5.20;99.90;;;;;;4952862;28;20242;-48
2023/01/23 12:43:16;;;;;;;19.25;15.02;;;5.20;99.90;;;;;;4953258;28;20212;-47
2023/01/23 12:45:49;;;;;;;19.90;17.27;;;4.30;99.90;;;;;;4952241;28;20435;-48
2023/01/23 12:48:21;;;;;;;18.73;15.80;;;5.20;99.90;;;;;;4952511;28;20231;-47
2023/01/23 12:50:51;;;;;;;19.63;14.75;;;5.20;99.90;;;;;;4953392;28;20442;-49
2023/01/23 12:53:20;;;;;;;23.17;15.77;;;5.60;99.90;;;;;;4953371;28;20205;-48
2023/01/23 12:55:56;;;;;;;20.60;14.95;;;5.30;99.90;;;;;;4952914;28;20298;-48
2023/01/23 12:58:26;;;;;;;17.90;15.20;;;5.10;99.90;;;;;;4952930;28;20219;-48
2023/01/23 13:01:05;;;;;;;19.30;14.30;;;4.80;99.90;;;;;;4953177;28;20209;-49
2023/01/23 13:03:54;;;;;;;22.08;15.88;;;5.30;99.90;;;;;;4953916;29;20453;-50
2023/01/23 13:06:33;;;;;;;18.10;14.85;;;5.00;99.90;;;;;;4953349;28;20585;-49